Time;durP1;ratioP1;P1;durP2;ratioP2;P2;SDS_P1;SDS_P2;PMS_P1;PMS_P2;Temp;Humidity;BMP_temperature;BMP_pressure;BME280_temperature;BME280_humidity;BME280_pressure;Samples;Min_cycle;Max_cycle;Signal;HPM_P1;HPM_P2
2022/11/02 00:00:44;;;;;;;;;;;;;;;;;;5091837;28;2117;-45
2022/11/02 00:03:11;;;;;;;;;;;;;;;;;;5092105;28;1977;-47
2022/11/02 00:05:38;;;;;;;;;;;;;;;;;;5091749;28;2458;-47
2022/11/02 00:08:05;;;;;;;;;;;;;;;;;;5091908;28;1724;-45
2022/11/02 00:10:32;;;;;;;;;;;;;;;;;;5092301;28;1974;-43
2022/11/02 00:12:59;;;;;;;;;;;;;;;;;;5091623;28;1806;-47
2022/11/02 00:15:29;;;;;;;;;;;;;;;;;;5091773;28;1459;-51
2022/11/02 00:17:58;;;;;;;;;;;;;;;;;;5091759;28;2108;-43
2022/11/02 00:20:26;;;;;;;;;;;;;;;;;;5091863;28;1961;-44
2022/11/02 00:22:55;;;;;;;;;;;;;;;;;;5091771;28;2177;-42
2022/11/02 00:25:24;;;;;;;;;;;;;;;;;;5091932;28;1876;-46
2022/11/02 00:27:51;;;;;;;;;;;;;;;;;;5091545;28;1989;-48
2022/11/02 00:30:20;;;;;;;;;;;;;;;;;;5091815;28;1919;-49
2022/11/02 00:32:47;;;;;;;;;;;;;;;;;;5091604;28;1990;-44
2022/11/02 00:35:15;;;;;;;;;;;;;;;;;;5091422;28;2108;-46
2022/11/02 00:37:42;;;;;;;;;;;;;;;;;;5091452;28;1667;-43
2022/11/02 00:40:10;;;;;;;;;;;;;;;;;;5091171;28;2181;-47
2022/11/02 00:42:37;;;;;;;;;;;;;;;;;;5091200;28;1994;-42
2022/11/02 00:45:05;;;;;;;;;;;;;;;;;;5090362;28;1815;-45
2022/11/02 00:47:32;;;;;;;;;;;;;;;;;;5090132;28;2046;-45
2022/11/02 00:50:00;;;;;;;;;;;;;;;;;;5091177;28;1548;-49
2022/11/02 00:52:29;;;;;;;;;;;;;;;;;;5109859;28;2069;-47
2022/11/02 00:54:56;;;;;;;;;;;;;;;;;;5110231;28;2447;-43
2022/11/02 00:57:24;;;;;;;;;;;;;;;;;;5111865;28;1939;-47
2022/11/02 00:59:52;;;;;;;;;;;;;;;;;;5110332;28;1760;-40
2022/11/02 01:02:19;;;;;;;;;;;;;;;;;;5110069;28;1982;-47
2022/11/02 01:04:47;;;;;;;;;;;;;;;;;;5111262;28;1911;-45
2022/11/02 01:07:14;;;;;;;;;;;;;;;;;;5111494;28;1678;-42
2022/11/02 01:09:41;;;;;;;;;;;;;;;;;;5111557;28;1266;-46
2022/11/02 01:12:08;;;;;;;;;;;;;;;;;;5111717;28;1995;-41
2022/11/02 01:14:36;;;;;;;;;;;;;;;;;;5111603;28;1448;-45
2022/11/02 01:17:03;;;;;;;;;;;;;;;;;;5111216;28;1842;-42
2022/11/02 01:19:31;;;;;;;;;;;;;;;;;;5106593;28;2010;-45
2022/11/02 01:21:58;;;;;;;;;;;;;;;;;;5090904;28;1914;-47
2022/11/02 01:24:25;;;;;;;;;;;;;;;;;;5089900;28;1999;-43
2022/11/02 01:26:53;;;;;;;;;;;;;;;;;;5091147;28;2003;-45
2022/11/02 01:29:20;;;;;;;;;;;;;;;;;;5091140;28;2064;-46
2022/11/02 01:31:48;;;;;;;;;;;;;;;;;;5091136;28;1789;-46
2022/11/02 01:34:16;;;;;;;;;;;;;;;;;;5089544;28;2041;-45
2022/11/02 01:36:44;;;;;;;;;;;;;;;;;;5089399;28;2283;-46
2022/11/02 01:39:11;;;;;;;;;;;;;;;;;;5090854;28;2011;-45
2022/11/02 01:41:39;;;;;;;;;;;;;;;;;;5090896;28;2272;-45
2022/11/02 01:44:22;;;;;;;;;;;;;;;;;;5089927;28;2017;-49
2022/11/02 01:46:51;;;;;;;;;;;;;;;;;;5090755;28;1916;-47
2022/11/02 01:49:20;;;;;;;;;;;;;;;;;;5089499;28;2090;-43
2022/11/02 01:52:00;;;;;;;;;;;;;;;;;;5090696;28;2095;-42
2022/11/02 01:54:36;;;;;;;;;;;;;;;;;;5092421;28;1831;-44
2022/11/02 01:57:07;;;;;;;;;;;;;;;;;;5093028;28;1975;-42
2022/11/02 01:59:38;;;;;;;;;;;;;;;;;;5094433;28;1899;-45
2022/11/02 02:02:19;;;;;;;;;;;;;;;;;;5094225;28;1971;-46
2022/11/02 02:04:50;;;;;;;;;;;;;;;;;;5094305;28;2160;-44
2022/11/02 02:07:18;;;;;;;;;;;;;;;;;;5094285;28;1703;-45
2022/11/02 02:09:46;;;;;;;;;;;;;;;;;;5076623;28;2070;-50
2022/11/02 02:12:16;;;;;;;;;;;;;;;;;;5094258;28;1560;-47
2022/11/02 02:14:46;;;;;;;;;;;;;;;;;;5092945;28;1979;-44
2022/11/02 02:17:14;;;;;;;;;;;;;;;;;;5107516;28;1734;-46
2022/11/02 02:19:48;;;;;;;;;;;;;;;;;;5094260;28;1870;-50
2022/11/02 02:22:34;;;;;;;;;;;;;;;;;;5093642;28;1991;-50
2022/11/02 02:25:13;;;;;;;;;;;;;;;;;;5092692;28;1833;-53
2022/11/02 02:27:54;;;;;;;;;;;;;;;;;;5092813;28;1927;-50
2022/11/02 02:30:22;;;;;;;;;;;;;;;;;;5093757;28;1640;-45
2022/11/02 02:33:00;;;;;;;;;;;;;;;;;;5092539;28;1868;-49
2022/11/02 02:35:38;;;;;;;;;;;;;;;;;;5093837;28;1980;-43
2022/11/02 02:38:11;;;;;;;;;;;;;;;;;;5093602;28;2095;-45
2022/11/02 02:40:51;;;;;;;;;;;;;;;;;;5092540;28;1482;-44
2022/11/02 02:43:26;;;;;;;;;;;;;;;;;;5093433;28;1981;-48
2022/11/02 02:46:08;;;;;;;;;;;;;;;;;;5093443;28;2083;-44
2022/11/02 02:48:36;;;;;;;;;;;;;;;;;;5093572;28;1726;-44
2022/11/02 02:51:05;;;;;;;;;;;;;;;;;;5096476;28;2353;-48
2022/11/02 02:53:36;;;;;;;;;;;;;;;;;;5093299;28;1849;-46
2022/11/02 02:56:05;;;;;;;;;;;;;;;;;;5093437;28;2073;-48
2022/11/02 02:58:37;;;;;;;;;;;;;;;;;;5093240;28;1688;-46
2022/11/02 03:01:05;;;;;;;;;;;;;;;;;;5093101;28;2200;-45
2022/11/02 03:03:35;;;;;;;;;;;;;;;;;;5092001;28;2086;-45
2022/11/02 03:06:13;;;;;;;;;;;;;;;;;;5091531;28;2224;-46
2022/11/02 03:08:47;;;;;;;;;;;;;;;;;;5093335;28;2008;-42
2022/11/02 03:11:15;;;;;;;;;;;;;;;;;;5093451;28;1276;-43
2022/11/02 03:13:57;;;;;;;;;;;;;;;;;;5093158;28;2095;-44
2022/11/02 03:16:46;;;;;;;;;;;;;;;;;;5091578;28;2038;-48
2022/11/02 03:19:16;;;;;;;;;;;;;;;;;;5092150;28;1857;-49
2022/11/02 03:21:44;;;;;;;;;;;;;;;;;;5093300;28;1998;-45
2022/11/02 03:24:14;;;;;;;;;;;;;;;;;;5092961;28;2066;-44
2022/11/02 03:26:45;;;;;;;;;;;;;;;;;;5092770;28;1917;-45
2022/11/02 03:29:20;;;;;;;;;;;;;;;;;;5091676;28;1989;-45
2022/11/02 03:31:55;;;;;;;;;;;;;;;;;;5091491;28;1405;-46
2022/11/02 03:34:43;;;;;;;;;;;;;;;;;;5092631;28;2114;-46
2022/11/02 03:37:14;;;;;;;;;;;;;;;;;;5092401;28;1545;-45
2022/11/02 03:39:47;;;;;;;;;;;;;;;;;;5091482;28;1724;-47
2022/11/02 03:42:17;;;;;;;;;;;;;;;;;;5091400;28;2013;-44
2022/11/02 03:44:49;;;;;;;;;;;;;;;;;;5091415;28;2093;-47
2022/11/02 03:47:18;;;;;;;;;;;;;;;;;;5091612;28;2188;-46
2022/11/02 03:49:48;;;;;;;;;;;;;;;;;;5091296;28;2197;-44
2022/11/02 03:52:20;;;;;;;;;;;;;;;;;;5092492;28;1641;-48
2022/11/02 03:54:59;;;;;;;;;;;;;;;;;;5092419;28;1775;-45
2022/11/02 03:57:38;;;;;;;;;;;;;;;;;;5090926;28;1710;-43
2022/11/02 04:00:09;;;;;;;;;;;;;;;;;;5092020;28;2226;-45
2022/11/02 04:02:45;;;;;;;;;;;;;;;;;;5091523;28;1918;-43
2022/11/02 04:05:12;;;;;;;;;;;;;;;;;;5090555;28;1872;-45
2022/11/02 04:10:29;;;;;;;;;;;;;;;;;;5092016;28;2073;-47
2022/11/02 04:15:42;;;;;;;;;;;;;;;;;;5092016;28;1737;-46
2022/11/02 04:20:58;;;;;;;;;;;;;;;;;;5091779;28;1781;-41
2022/11/02 04:26:11;;;;;;;;;;;;;;;;;;5099112;28;2025;-43
2022/11/02 04:28:42;;;;;;;;;;;;;;;;;;5110871;28;2194;-45
2022/11/02 04:31:11;;;;;;;;;;;;;;;;;;5111942;28;1437;-43
2022/11/02 04:33:40;;;;;;;;;;;;;;;;;;5110563;28;1882;-43
2022/11/02 04:36:10;;;;;;;;;;;;;;;;;;5111957;28;1456;-42
2022/11/02 04:38:39;;;;;;;;;;;;;;;;;;5110628;28;2246;-42
2022/11/02 04:44:00;;;;;;;;;;;;;;;;;;5106540;28;1296;-45
2022/11/02 04:46:30;;;;;;;;;;;;;;;;;;5090174;28;1949;-49
2022/11/02 04:48:57;;;;;;;;;;;;;;;;;;5073423;28;2142;-44
2022/11/02 04:51:26;;;;;;;;;;;;;;;;;;5100911;28;2236;-45
2022/11/02 04:53:54;;;;;;;;;;;;;;;;;;5110328;28;1958;-40
2022/11/02 04:56:23;;;;;;;;;;;;;;;;;;5110617;28;1686;-45
2022/11/02 04:58:52;;;;;;;;;;;;;;;;;;5110614;28;1802;-46
2022/11/02 05:01:21;;;;;;;;;;;;;;;;;;5110451;28;1906;-46
2022/11/02 05:03:49;;;;;;;;;;;;;;;;;;5111695;28;1974;-46
2022/11/02 05:06:18;;;;;;;;;;;;;;;;;;5110130;28;1921;-45
2022/11/02 05:08:46;;;;;;;;;;;;;;;;;;5110347;28;1835;-49
2022/11/02 05:11:13;;;;;;;;;;;;;;;;;;5110330;28;1635;-45
2022/11/02 05:13:41;;;;;;;;;;;;;;;;;;5110161;28;1941;-43
2022/11/02 05:16:10;;;;;;;;;;;;;;;;;;5111640;28;1982;-46
2022/11/02 05:18:38;;;;;;;;;;;;;;;;;;5110188;28;1825;-46
2022/11/02 05:21:05;;;;;;;;;;;;;;;;;;5111538;28;1936;-45
2022/11/02 05:23:32;;;;;;;;;;;;;;;;;;5109941;28;1905;-46
2022/11/02 05:26:04;;;;;;;;;;;;;;;;;;5111372;28;2112;-44
2022/11/02 05:28:32;;;;;;;;;;;;;;;;;;5110779;28;1705;-46
2022/11/02 05:31:02;;;;;;;;;;;;;;;;;;5114195;28;2089;-44
2022/11/02 05:33:32;;;;;;;;;;;;;;;;;;5114128;28;1984;-50
2022/11/02 05:36:05;;;;;;;;;;;;;;;;;;5115096;28;2093;-46
2022/11/02 05:38:35;;;;;;;;;;;;;;;;;;5113899;28;2008;-46
2022/11/02 05:41:03;;;;;;;;;;;;;;;;;;5113935;28;2042;-43
2022/11/02 05:43:34;;;;;;;;;;;;;;;;;;5114048;28;1902;-44
2022/11/02 05:46:04;;;;;;;;;;;;;;;;;;5113938;28;1937;-41
2022/11/02 05:48:31;;;;;;;;;;;;;;;;;;5115149;28;2093;-44
2022/11/02 05:51:00;;;;;;;;;;;;;;;;;;5107648;28;2182;-45
2022/11/02 05:53:31;;;;;;;;;;;;;;;;;;5094636;28;2367;-45
2022/11/02 05:55:59;;;;;;;;;;;;;;;;;;5094763;28;2035;-48
2022/11/02 05:58:27;;;;;;;;;;;;;;;;;;5094601;28;1995;-45
2022/11/02 06:00:57;;;;;;;;;;;;;;;;;;5094774;28;1640;-48
2022/11/02 06:03:24;;;;;;;;;;;;;;;;;;5094588;28;1910;-43
2022/11/02 06:05:58;;;;;;;;;;;;;;;;;;5094132;28;1875;-45
2022/11/02 06:08:29;;;;;;;;;;;;;;;;;;5093482;28;1320;-45
2022/11/02 06:10:56;;;;;;;;;;;;;;;;;;5094232;28;2167;-45
2022/11/02 06:13:23;;;;;;;;;;;;;;;;;;5094343;28;1757;-46
2022/11/02 06:15:51;;;;;;;;;;;;;;;;;;5094247;28;1652;-45
2022/11/02 06:18:19;;;;;;;;;;;;;;;;;;5094352;28;1925;-47
2022/11/02 06:20:46;;;;;;;;;;;;;;;;;;5094354;28;1880;-44
2022/11/02 06:23:16;;;;;;;;;;;;;;;;;;5094091;28;1980;-45
2022/11/02 06:25:54;;;;;;;;;;;;;;;;;;5094144;28;1281;-44
2022/11/02 06:28:21;;;;;;;;;;;;;;;;;;5093863;28;1676;-46
2022/11/02 06:30:49;;;;;;;;;;;;;;;;;;5093958;28;1444;-47
2022/11/02 06:33:16;;;;;;;;;;;;;;;;;;5094031;28;1868;-46
2022/11/02 06:35:47;;;;;;;;;;;;;;;;;;5093963;28;2110;-47
2022/11/02 06:38:15;;;;;;;;;;;;;;;;;;5093833;28;1553;-44
2022/11/02 06:40:42;;;;;;;;;;;;;;;;;;5092922;28;1829;-45
2022/11/02 06:43:11;;;;;;;;;;;;;;;;;;5093598;28;2107;-45
2022/11/02 06:45:43;;;;;;;;;;;;;;;;;;5093609;28;1850;-42
2022/11/02 06:48:11;;;;;;;;;;;;;;;;;;5092972;28;1664;-45
2022/11/02 06:50:38;;;;;;;;;;;;;;;;;;5091294;28;1446;-48
2022/11/02 06:53:06;;;;;;;;;;;;;;;;;;5091959;28;2064;-42
2022/11/02 06:55:33;;;;;;;;;;;;;;;;;;5091726;28;1987;-43
2022/11/02 06:58:01;;;;;;;;;;;;;;;;;;5091631;28;2035;-42
2022/11/02 07:00:30;;;;;;;;;;;;;;;;;;5091534;28;1989;-46
2022/11/02 07:03:01;;;;;;;;;;;;;;;;;;5091712;28;2092;-48
2022/11/02 07:05:29;;;;;;;;;;;;;;;;;;5092401;28;1546;-47
2022/11/02 07:07:56;;;;;;;;;;;;;;;;;;5094078;28;2011;-46
2022/11/02 07:10:24;;;;;;;;;;;;;;;;;;5093301;28;1519;-44
2022/11/02 07:12:52;;;;;;;;;;;;;;;;;;5093290;28;1951;-46
2022/11/02 07:15:20;;;;;;;;;;;;;;;;;;5093375;28;2130;-44
2022/11/02 07:17:48;;;;;;;;;;;;;;;;;;5093206;28;1874;-45
2022/11/02 07:20:15;;;;;;;;;;;;;;;;;;5091776;28;1759;-45
2022/11/02 07:22:50;;;;;;;;;;;;;;;;;;5092896;28;1996;-42
2022/11/02 07:25:17;;;;;;;;;;;;;;;;;;5093052;28;2132;-45
2022/11/02 07:27:45;;;;;;;;;;;;;;;;;;5092933;28;2317;-48
2022/11/02 07:30:12;;;;;;;;;;;;;;;;;;5093003;28;1847;-44
2022/11/02 07:32:43;;;;;;;;;;;;;;;;;;5092591;28;2330;-44
2022/11/02 07:35:11;;;;;;;;;;;;;;;;;;5092970;28;2050;-43
2022/11/02 07:37:38;;;;;;;;;;;;;;;;;;5092763;28;2157;-45
2022/11/02 07:40:07;;;;;;;;;;;;;;;;;;5092573;28;1713;-45
2022/11/02 07:42:34;;;;;;;;;;;;;;;;;;5092652;28;1960;-45
2022/11/02 07:45:04;;;;;;;;;;;;;;;;;;5091152;28;1964;-42
2022/11/02 07:47:32;;;;;;;;;;;;;;;;;;5093044;28;1972;-48
2022/11/02 07:50:00;;;;;;;;;;;;;;;;;;5092614;28;1848;-42
2022/11/02 07:52:27;;;;;;;;;;;;;;;;;;5109993;28;1882;-45
2022/11/02 07:54:55;;;;;;;;;;;;;;;;;;5112748;28;1688;-46
2022/11/02 07:57:22;;;;;;;;;;;;;;;;;;5106806;28;1537;-44
2022/11/02 07:59:50;;;;;;;;;;;;;;;;;;5091970;28;1783;-46
2022/11/02 08:02:19;;;;;;;;;;;;;;;;;;5099226;28;2177;-41
2022/11/02 08:04:47;;;;;;;;;;;;;;;;;;5112243;28;1905;-49
2022/11/02 08:07:14;;;;;;;;;;;;;;;;;;5112198;28;1507;-50
2022/11/02 08:09:42;;;;;;;;;;;;;;;;;;5112426;28;1827;-48
2022/11/02 08:12:09;;;;;;;;;;;;;;;;;;5112251;28;2062;-49
2022/11/02 08:14:36;;;;;;;;;;;;;;;;;;5112224;28;1848;-48
2022/11/02 08:17:03;;;;;;;;;;;;;;;;;;5112633;28;1981;-43
2022/11/02 08:19:30;;;;;;;;;;;;;;;;;;5112588;28;1369;-50
2022/11/02 08:21:57;;;;;;;;;;;;;;;;;;5112240;28;2036;-45
2022/11/02 08:24:25;;;;;;;;;;;;;;;;;;5112424;28;1976;-46
2022/11/02 08:26:52;;;;;;;;;;;;;;;;;;5111936;28;1835;-45
2022/11/02 08:29:20;;;;;;;;;;;;;;;;;;5112235;28;1790;-43
2022/11/02 08:31:47;;;;;;;;;;;;;;;;;;5112189;28;1717;-47
2022/11/02 08:34:14;;;;;;;;;;;;;;;;;;5111980;28;2208;-45
2022/11/02 08:36:41;;;;;;;;;;;;;;;;;;5112157;28;1837;-45
2022/11/02 08:39:08;;;;;;;;;;;;;;;;;;5111793;28;1654;-45
2022/11/02 08:41:40;;;;;;;;;;;;;;;;;;5112025;28;2041;-45
2022/11/02 08:44:07;;;;;;;;;;;;;;;;;;5111734;28;1909;-47
2022/11/02 08:46:34;;;;;;;;;;;;;;;;;;5111965;28;2022;-48
2022/11/02 08:49:01;;;;;;;;;;;;;;;;;;5112059;28;2129;-52
2022/11/02 08:51:28;;;;;;;;;;;;;;;;;;5100408;27;1408;-41
2022/11/02 08:53:55;;;;;;;;;;;;;;;;;;5091311;28;1886;-47
2022/11/02 08:56:23;;;;;;;;;;;;;;;;;;5091458;28;1898;-44
2022/11/02 08:58:50;;;;;;;;;;;;;;;;;;5091201;28;1681;-46
2022/11/02 09:01:17;;;;;;;;;;;;;;;;;;5091262;28;2088;-48
2022/11/02 09:03:45;;;;;;;;;;;;;;;;;;5091102;28;1915;-48
2022/11/02 09:06:12;;;;;;;;;;;;;;;;;;5091086;28;1941;-47
2022/11/02 09:08:39;;;;;;;;;;;;;;;;;;5091242;28;1720;-51
2022/11/02 09:11:06;;;;;;;;;;;;;;;;;;5091367;28;2111;-47
2022/11/02 09:13:36;;;;;;;;;;;;;;;;;;5091635;28;1798;-42
2022/11/02 09:16:04;;;;;;;;;;;;;;;;;;5091453;28;1698;-43
2022/11/02 09:18:31;;;;;;;;;;;;;;;;;;5091119;28;1687;-48
2022/11/02 09:21:02;;;;;;;;;;;;;;;;;;5091277;28;2056;-42
2022/11/02 09:23:29;;;;;;;;;;;;;;;;;;5091290;28;1912;-43
2022/11/02 09:25:56;;;;;;;;;;;;;;;;;;5091224;28;1822;-47
2022/11/02 09:28:24;;;;;;;;;;;;;;;;;;5091068;28;1916;-49
2022/11/02 09:30:51;;;;;;;;;;;;;;;;;;5091128;28;1684;-44
2022/11/02 09:33:18;;;;;;;;;;;;;;;;;;5091111;28;1846;-48
2022/11/02 09:35:46;;;;;;;;;;;;;;;;;;5091095;28;1948;-49
2022/11/02 09:38:13;;;;;;;;;;;;;;;;;;5091118;28;2037;-50
2022/11/02 09:40:47;;;;;;;;;;;;;;;;;;5091065;28;1934;-49
2022/11/02 09:43:33;;;;;;;;;;;;;;;;;;5090714;28;2040;-43
2022/11/02 09:46:08;;;;;;;;;;;;;;;;;;5090828;28;2335;-45
2022/11/02 09:48:38;;;;;;;;;;;;;;;;;;5091233;28;1860;-45
2022/11/02 09:51:08;;;;;;;;;;;;;;;;;;5091119;28;1699;-50
2022/11/02 09:53:59;;;;;;;;;;;;;;;;;;5091070;28;2022;-42
2022/11/02 09:56:26;;;;;;;;;;;;;;;;;;5090248;28;2109;-44
2022/11/02 09:59:16;;;;;;;;;;;;;;;;;;5090845;28;1802;-46
2022/11/02 10:01:45;;;;;;;;;;;;;;;;;;5090329;28;2007;-45
2022/11/02 10:04:12;;;;;;;;;;;;;;;;;;5090761;28;1986;-46
2022/11/02 10:06:43;;;;;;;;;;;;;;;;;;5090618;28;1924;-44
2022/11/02 10:09:10;;;;;;;;;;;;;;;;;;5091116;28;2082;-44
2022/11/02 10:11:41;;;;;;;;;;;;;;;;;;5091036;28;2102;-49
2022/11/02 10:14:14;;;;;;;;;;;;;;;;;;5090765;28;1669;-42
2022/11/02 10:16:49;;;;;;;;;;;;;;;;;;5093169;28;1687;-42
2022/11/02 10:19:18;;;;;;;;;;;;;;;;;;5094218;28;2017;-45
2022/11/02 10:21:47;;;;;;;;;;;;;;;;;;5094352;28;1746;-45
2022/11/02 10:24:17;;;;;;;;;;;;;;;;;;5094203;28;2106;-45
2022/11/02 10:26:44;;;;;;;;;;;;;;;;;;5094122;28;1670;-47
2022/11/02 10:29:22;;;;;;;;;;;;;;;;;;5106752;28;1675;-51
2022/11/02 10:31:49;;;;;;;;;;;;;;;;;;5099098;28;1979;-45
2022/11/02 10:34:26;;;;;;;;;;;;;;;;;;5099199;28;1658;-46
2022/11/02 10:37:06;;;;;;;;;;;;;;;;;;5102091;28;1831;-47
2022/11/02 10:39:51;;;;;;;;;;;;;;;;;;5099828;28;2393;-45
2022/11/02 10:42:41;;;;;;;;;;;;;;;;;;5104520;27;1920;-46
2022/11/02 10:45:19;;;;;;;;;;;;;;;;;;5103383;28;1996;-47
2022/11/02 10:47:46;;;;;;;;;;;;;;;;;;5112343;28;1935;-49
2022/11/02 10:50:31;;;;;;;;;;;;;;;;;;5103843;28;2130;-48
2022/11/02 10:53:00;;;;;;;;;;;;;;;;;;5093437;28;1698;-42
2022/11/02 10:55:55;;;;;;;;;;;;;;;;;;5108777;28;1818;-43
2022/11/02 10:58:25;;;;;;;;;;;;;;;;;;5098204;28;1864;-44
2022/11/02 11:01:03;;;;;;;;;;;;;;;;;;5110802;28;2066;-47
2022/11/02 11:03:30;;;;;;;;;;;;;;;;;;5102564;28;1918;-47
2022/11/02 11:06:04;;;;;;;;;;;;;;;;;;5097532;28;1998;-41
2022/11/02 11:08:36;;;;;;;;;;;;;;;;;;5113631;28;1728;-46
2022/11/02 11:11:10;;;;;;;;;;;;;;;;;;5108732;28;1686;-44
2022/11/02 11:13:39;;;;;;;;;;;;;;;;;;5103696;28;2031;-42
2022/11/02 11:16:33;;;;;;;;;;;;;;;;;;5100078;28;2015;-47
2022/11/02 11:19:00;;;;;;;;;;;;;;;;;;5093260;28;1632;-45
2022/11/02 11:21:50;;;;;;;;;;;;;;;;;;5092844;28;1635;-48
2022/11/02 11:24:20;;;;;;;;;;;;;;;;;;5093025;28;1913;-48
2022/11/02 11:26:59;;;;;;;;;;;;;;;;;;5092781;28;1708;-48
2022/11/02 11:29:29;;;;;;;;;;;;;;;;;;5100958;28;1639;-43
2022/11/02 11:31:57;;;;;;;;;;;;;;;;;;5106705;28;1497;-45
2022/11/02 11:34:25;;;;;;;;;;;;;;;;;;5096442;28;2012;-43
2022/11/02 11:36:52;;;;;;;;;;;;;;;;;;5097728;28;2077;-41
2022/11/02 11:39:22;;;;;;;;;;;;;;;;;;5096769;28;1656;-43
2022/11/02 11:41:50;;;;;;;;;;;;;;;;;;5095771;28;2318;-49
2022/11/02 11:44:20;;;;;;;;;;;;;;;;;;5102454;28;1910;-44
2022/11/02 11:46:49;;;;;;;;;;;;;;;;;;5097395;28;1596;-41
2022/11/02 11:49:24;;;;;;;;;;;;;;;;;;5102422;28;1849;-45
2022/11/02 11:52:12;;;;;;;;;;;;;;;;;;5097921;28;1984;-47
2022/11/02 11:54:50;;;;;;;;;;;;;;;;;;5100745;28;2145;-50
2022/11/02 11:57:24;;;;;;;;;;;;;;;;;;5101979;28;2061;-42
2022/11/02 11:59:51;;;;;;;;;;;;;;;;;;5103350;28;1709;-45
2022/11/02 12:02:25;;;;;;;;;;;;;;;;;;5097988;28;1449;-41
2022/11/02 12:05:12;;;;;;;;;;;;;;;;;;5107205;28;1987;-50
2022/11/02 12:07:39;;;;;;;;;;;;;;;;;;5099612;28;1761;-46
2022/11/02 12:10:06;;;;;;;;;;;;;;;;;;5101955;28;1661;-49
2022/11/02 12:12:49;;;;;;;;;;;;;;;;;;5097519;28;1266;-47
2022/11/02 12:15:24;;;;;;;;;;;;;;;;;;5097629;28;1999;-51
2022/11/02 12:17:54;;;;;;;;;;;;;;;;;;5107805;28;1747;-51
2022/11/02 12:20:21;;;;;;;;;;;;;;;;;;5106611;28;1624;-44
2022/11/02 12:22:48;;;;;;;;;;;;;;;;;;5093019;28;1464;-49
2022/11/02 12:25:15;;;;;;;;;;;;;;;;;;5095828;28;1988;-48
2022/11/02 12:27:47;;;;;;;;;;;;;;;;;;5106912;28;1725;-42
2022/11/02 12:30:18;;;;;;;;;;;;;;;;;;5098349;28;2099;-48
2022/11/02 12:32:45;;;;;;;;;;;;;;;;;;5109423;28;2176;-44
2022/11/02 12:35:24;;;;;;;;;;;;;;;;;;5097460;28;1822;-45
2022/11/02 12:38:00;;;;;;;;;;;;;;;;;;5098159;28;2121;-46
2022/11/02 12:40:48;;;;;;;;;;;;;;;;;;5096510;28;1962;-43
2022/11/02 12:43:37;;;;;;;;;;;;;;;;;;5098109;28;1805;-48
2022/11/02 12:46:04;;;;;;;;;;;;;;;;;;5099488;28;1939;-48
2022/11/02 12:48:31;;;;;;;;;;;;;;;;;;5096322;28;1949;-47
2022/11/02 12:51:01;;;;;;;;;;;;;;;;;;5097038;28;1766;-48
2022/11/02 12:53:34;;;;;;;;;;;;;;;;;;5100542;28;2325;-45
2022/11/02 12:56:04;;;;;;;;;;;;;;;;;;5106831;28;1906;-48
2022/11/02 12:58:35;;;;;;;;;;;;;;;;;;5100181;28;1987;-47
2022/11/02 13:01:26;;;;;;;;;;;;;;;;;;5097882;28;2102;-44
2022/11/02 13:03:53;;;;;;;;;;;;;;;;;;5096113;28;1984;-46
2022/11/02 13:06:27;;;;;;;;;;;;;;;;;;5105030;28;1951;-48
2022/11/02 13:09:01;;;;;;;;;;;;;;;;;;5091298;28;2162;-42
2022/11/02 13:11:29;;;;;;;;;;;;;;;;;;5105788;28;2294;-42
2022/11/02 13:13:58;;;;;;;;;;;;;;;;;;5092607;28;1292;-50
2022/11/02 13:16:45;;;;;;;;;;;;;;;;;;5092240;28;1950;-47
2022/11/02 13:19:18;;;;;;;;;;;;;;;;;;5107894;28;1577;-46
2022/11/02 13:21:49;;;;;;;;;;;;;;;;;;5099125;28;2017;-46
2022/11/02 13:24:18;;;;;;;;;;;;;;;;;;5093670;28;2164;-47
2022/11/02 13:26:47;;;;;;;;;;;;;;;;;;5107838;28;1938;-49
2022/11/02 13:29:28;;;;;;;;;;;;;;;;;;5097333;28;2017;-47
2022/11/02 13:31:59;;;;;;;;;;;;;;;;;;5105053;28;1486;-46
2022/11/02 13:34:38;;;;;;;;;;;;;;;;;;5100900;28;1738;-41
2022/11/02 13:37:16;;;;;;;;;;;;;;;;;;5091470;28;1725;-48
2022/11/02 13:39:50;;;;;;;;;;;;;;;;;;5102088;28;1681;-43
2022/11/02 13:42:36;;;;;;;;;;;;;;;;;;5091483;28;1703;-44
2022/11/02 13:45:09;;;;;;;;;;;;;;;;;;5099118;28;2089;-45
2022/11/02 13:47:59;;;;;;;;;;;;;;;;;;5108423;28;1696;-45
2022/11/02 13:50:27;;;;;;;;;;;;;;;;;;5109044;28;2034;-47
2022/11/02 13:52:58;;;;;;;;;;;;;;;;;;5098220;28;1782;-45
2022/11/02 13:55:46;;;;;;;;;;;;;;;;;;5110256;27;1241;-40
2022/11/02 13:58:33;;;;;;;;;;;;;;;;;;5100705;28;2155;-43
2022/11/02 14:01:02;;;;;;;;;;;;;;;;;;5094117;28;1788;-44
2022/11/02 14:03:33;;;;;;;;;;;;;;;;;;5105316;28;1504;-40
2022/11/02 14:06:01;;;;;;;;;;;;;;;;;;5096832;28;2253;-48
2022/11/02 14:08:39;;;;;;;;;;;;;;;;;;5107014;28;2389;-45
2022/11/02 14:11:09;;;;;;;;;;;;;;;;;;5098211;28;1980;-41
2022/11/02 14:13:49;;;;;;;;;;;;;;;;;;5105022;28;2431;-48
2022/11/02 14:16:34;;;;;;;;;;;;;;;;;;5107283;28;1638;-52
2022/11/02 14:19:16;;;;;;;;;;;;;;;;;;5096229;28;2049;-40
2022/11/02 14:21:58;;;;;;;;;;;;;;;;;;5094195;28;1656;-44
2022/11/02 14:24:31;;;;;;;;;;;;;;;;;;5098181;28;1975;-42
2022/11/02 14:27:24;;;;;;;;;;;;;;;;;;5104317;28;1924;-41
2022/11/02 14:29:52;;;;;;;;;;;;;;;;;;5112791;28;1845;-42
2022/11/02 14:32:19;;;;;;;;;;;;;;;;;;5102277;28;2053;-41
2022/11/02 14:34:46;;;;;;;;;;;;;;;;;;5094012;28;1235;-42
2022/11/02 14:37:36;;;;;;;;;;;;;;;;;;5096564;28;1848;-47
2022/11/02 14:40:03;;;;;;;;;;;;;;;;;;5092280;28;1379;-45
2022/11/02 14:42:42;;;;;;;;;;;;;;;;;;5093844;28;1700;-44
2022/11/02 14:45:23;;;;;;;;;;;;;;;;;;5093783;28;1903;-49
2022/11/02 14:47:56;;;;;;;;;;;;;;;;;;5093597;28;1896;-44
2022/11/02 14:50:24;;;;;;;;;;;;;;;;;;5092161;28;2034;-46
2022/11/02 14:53:05;;;;;;;;;;;;;;;;;;5093390;28;1998;-49
2022/11/02 14:55:37;;;;;;;;;;;;;;;;;;5093614;28;2103;-43
2022/11/02 14:58:13;;;;;;;;;;;;;;;;;;5093459;28;2051;-44
2022/11/02 15:00:46;;;;;;;;;;;;;;;;;;5092735;28;1944;-45
2022/11/02 15:03:27;;;;;;;;;;;;;;;;;;5093637;28;2307;-49
2022/11/02 15:06:13;;;;;;;;;;;;;;;;;;5093107;28;1910;-43
2022/11/02 15:08:40;;;;;;;;;;;;;;;;;;5093333;28;2113;-43
2022/11/02 15:11:26;;;;;;;;;;;;;;;;;;5093133;28;1971;-45
2022/11/02 15:13:53;;;;;;;;;;;;;;;;;;5093334;28;1612;-49
2022/11/02 15:16:21;;;;;;;;;;;;;;;;;;5093393;28;1744;-43
2022/11/02 15:18:48;;;;;;;;;;;;;;;;;;5092945;28;1777;-39
2022/11/02 15:21:20;;;;;;;;;;;;;;;;;;5092934;28;2021;-46
2022/11/02 15:23:47;;;;;;;;;;;;;;;;;;5092801;28;1832;-49
2022/11/02 15:26:17;;;;;;;;;;;;;;;;;;5093047;28;2131;-48
2022/11/02 15:28:46;;;;;;;;;;;;;;;;;;5093176;28;1866;-44
2022/11/02 15:31:18;;;;;;;;;;;;;;;;;;5092787;28;1951;-41
2022/11/02 15:33:52;;;;;;;;;;;;;;;;;;5091672;28;1938;-48
2022/11/02 15:36:32;;;;;;;;;;;;;;;;;;5090595;28;1720;-44
2022/11/02 15:39:03;;;;;;;;;;;;;;;;;;5091557;28;1292;-45
2022/11/02 15:41:36;;;;;;;;;;;;;;;;;;5092304;28;1942;-45
2022/11/02 15:44:03;;;;;;;;;;;;;;;;;;5091350;28;1969;-47
2022/11/02 15:46:49;;;;;;;;;;;;;;;;;;5091968;28;2027;-44
2022/11/02 15:49:27;;;;;;;;;;;;;;;;;;5092051;28;1698;-44
2022/11/02 15:52:00;;;;;;;;;;;;;;;;;;5101228;28;1852;-43
2022/11/02 15:54:42;;;;;;;;;;;;;;;;;;5090449;28;1706;-45
2022/11/02 15:57:30;;;;;;;;;;;;;;;;;;5090227;28;1751;-44
2022/11/02 16:00:17;;;;;;;;;;;;;;;;;;5090363;28;1972;-48
2022/11/02 16:02:46;;;;;;;;;;;;;;;;;;5092249;28;2045;-47
2022/11/02 16:05:15;;;;;;;;;;;;;;;;;;5091796;28;1953;-43
2022/11/02 16:07:42;;;;;;;;;;;;;;;;;;5092255;28;2350;-46
2022/11/02 16:10:31;;;;;;;;;;;;;;;;;;5092390;28;1459;-45
2022/11/02 16:13:24;;;;;;;;;;;;;;;;;;5091255;28;2040;-44
2022/11/02 16:16:01;;;;;;;;;;;;;;;;;;5091680;28;1797;-44
2022/11/02 16:18:33;;;;;;;;;;;;;;;;;;5090340;28;2037;-43
2022/11/02 16:21:01;;;;;;;;;;;;;;;;;;5090128;28;1874;-44
2022/11/02 16:23:39;;;;;;;;;;;;;;;;;;5090074;28;1573;-46
2022/11/02 16:26:12;;;;;;;;;;;;;;;;;;5089466;28;2001;-48
2022/11/02 16:28:39;;;;;;;;;;;;;;;;;;5090138;28;1787;-47
2022/11/02 16:31:06;;;;;;;;;;;;;;;;;;5090983;28;2129;-49
2022/11/02 16:33:44;;;;;;;;;;;;;;;;;;5091430;28;2213;-45
2022/11/02 16:36:16;;;;;;;;;;;;;;;;;;5091660;28;2049;-45
2022/11/02 16:39:03;;;;;;;;;;;;;;;;;;5091603;28;1694;-46
2022/11/02 16:41:32;;;;;;;;;;;;;;;;;;5091837;28;1715;-45
2022/11/02 16:44:01;;;;;;;;;;;;;;;;;;5091728;28;2198;-44
2022/11/02 16:46:46;;;;;;;;;;;;;;;;;;5091497;28;1991;-49
2022/11/02 16:49:18;;;;;;;;;;;;;;;;;;5090267;28;1619;-45
2022/11/02 16:51:48;;;;;;;;;;;;;;;;;;5105146;28;2044;-48
2022/11/02 16:54:25;;;;;;;;;;;;;;;;;;5111889;28;1995;-46
2022/11/02 16:56:53;;;;;;;;;;;;;;;;;;5111578;28;2131;-47
2022/11/02 16:59:22;;;;;;;;;;;;;;;;;;5111921;28;1817;-44
2022/11/02 17:01:49;;;;;;;;;;;;;;;;;;5111608;28;1685;-45
2022/11/02 17:04:19;;;;;;;;;;;;;;;;;;5111625;28;2121;-43
2022/11/02 17:06:47;;;;;;;;;;;;;;;;;;5111510;28;2099;-44
2022/11/02 17:09:20;;;;;;;;;;;;;;;;;;5111596;28;1925;-41
2022/11/02 17:11:48;;;;;;;;;;;;;;;;;;5091114;28;1703;-46
2022/11/02 17:14:17;;;;;;;;;;;;;;;;;;5091164;28;1977;-44
2022/11/02 17:16:57;;;;;;;;;;;;;;;;;;5091326;28;1957;-46
2022/11/02 17:19:36;;;;;;;;;;;;;;;;;;5091191;28;1861;-41
2022/11/02 17:22:09;;;;;;;;;;;;;;;;;;5091386;28;1832;-47
2022/11/02 17:24:36;;;;;;;;;;;;;;;;;;5093073;28;2209;-44
2022/11/02 17:27:16;;;;;;;;;;;;;;;;;;5095764;28;1905;-51
2022/11/02 17:29:43;;;;;;;;;;;;;;;;;;5095185;28;2017;-46
2022/11/02 17:32:14;;;;;;;;;;;;;;;;;;5095728;28;1981;-42
2022/11/02 17:34:51;;;;;;;;;;;;;;;;;;5095006;28;2032;-47
2022/11/02 17:37:21;;;;;;;;;;;;;;;;;;5095372;28;1812;-41
2022/11/02 17:39:48;;;;;;;;;;;;;;;;;;5095092;28;1807;-48
2022/11/02 17:45:19;;;;;;;;;;;;;;;;;;5094861;28;2071;-43
2022/11/02 17:47:47;;;;;;;;;;;;;;;;;;5094837;28;2061;-43
2022/11/02 17:50:14;;;;;;;;;;;;;;;;;;5094920;28;1699;-45